sensor_id;sensor_type;location;lat;lon;timestamp;P1;durP1;ratioP1;P2;durP2;ratioP2
58242;SDS011;50118;53.232;8.252;2023-02-28T00:02:07;6.07;;;3.50;;
58242;SDS011;50118;53.232;8.252;2023-02-28T00:04:32;5.78;;;3.47;;
58242;SDS011;50118;53.232;8.252;2023-02-28T00:06:57;5.93;;;3.40;;
58242;SDS011;50118;53.232;8.252;2023-02-28T00:09:23;6.40;;;3.17;;
58242;SDS011;50118;53.232;8.252;2023-02-28T00:11:48;5.68;;;3.33;;
58242;SDS011;50118;53.232;8.252;2023-02-28T00:14:14;6.07;;;3.40;;
58242;SDS011;50118;53.232;8.252;2023-02-28T00:16:39;5.07;;;2.92;;
58242;SDS011;50118;53.232;8.252;2023-02-28T00:19:04;6.20;;;3.45;;
58242;SDS011;50118;53.232;8.252;2023-02-28T00:21:30;6.10;;;3.60;;
58242;SDS011;50118;53.232;8.252;2023-02-28T00:23:55;6.15;;;3.63;;
58242;SDS011;50118;53.232;8.252;2023-02-28T00:26:21;6.47;;;3.20;;
58242;SDS011;50118;53.232;8.252;2023-02-28T00:28:46;6.47;;;3.60;;
58242;SDS011;50118;53.232;8.252;2023-02-28T00:31:11;6.30;;;3.40;;
58242;SDS011;50118;53.232;8.252;2023-02-28T00:33:37;5.47;;;3.08;;
58242;SDS011;50118;53.232;8.252;2023-02-28T00:36:06;4.97;;;3.17;;
58242;SDS011;50118;53.232;8.252;2023-02-28T00:38:34;6.78;;;3.60;;
58242;SDS011;50118;53.232;8.252;2023-02-28T00:40:59;6.35;;;3.38;;
58242;SDS011;50118;53.232;8.252;2023-02-28T00:43:29;7.55;;;3.90;;
58242;SDS011;50118;53.232;8.252;2023-02-28T00:45:55;6.75;;;3.80;;
58242;SDS011;50118;53.232;8.252;2023-02-28T00:48:21;8.30;;;3.90;;
58242;SDS011;50118;53.232;8.252;2023-02-28T00:50:48;7.30;;;3.60;;
58242;SDS011;50118;53.232;8.252;2023-02-28T00:53:14;5.40;;;3.30;;
58242;SDS011;50118;53.232;8.252;2023-02-28T00:55:40;5.85;;;3.30;;
58242;SDS011;50118;53.232;8.252;2023-02-28T00:58:05;6.32;;;3.50;;
58242;SDS011;50118;53.232;8.252;2023-02-28T01:00:30;8.43;;;4.00;;
58242;SDS011;50118;53.232;8.252;2023-02-28T01:02:56;6.95;;;3.60;;
58242;SDS011;50118;53.232;8.252;2023-02-28T01:05:21;6.65;;;3.50;;
58242;SDS011;50118;53.232;8.252;2023-02-28T01:07:47;5.63;;;3.45;;
58242;SDS011;50118;53.232;8.252;2023-02-28T01:10:12;6.63;;;3.70;;
58242;SDS011;50118;53.232;8.252;2023-02-28T01:12:37;6.45;;;4.00;;
58242;SDS011;50118;53.232;8.252;2023-02-28T01:15:03;6.43;;;3.90;;
58242;SDS011;50118;53.232;8.252;2023-02-28T01:17:29;7.72;;;4.55;;
58242;SDS011;50118;53.232;8.252;2023-02-28T01:19:54;8.88;;;4.40;;
58242;SDS011;50118;53.232;8.252;2023-02-28T01:22:21;7.05;;;4.20;;
58242;SDS011;50118;53.232;8.252;2023-02-28T01:24:47;7.22;;;4.45;;
58242;SDS011;50118;53.232;8.252;2023-02-28T01:27:13;6.80;;;4.53;;
58242;SDS011;50118;53.232;8.252;2023-02-28T01:29:38;7.35;;;4.35;;
58242;SDS011;50118;53.232;8.252;2023-02-28T01:32:04;7.18;;;4.18;;
58242;SDS011;50118;53.232;8.252;2023-02-28T01:34:29;6.10;;;4.18;;
58242;SDS011;50118;53.232;8.252;2023-02-28T01:36:55;7.82;;;4.65;;
58242;SDS011;50118;53.232;8.252;2023-02-28T01:39:20;8.27;;;4.70;;
58242;SDS011;50118;53.232;8.252;2023-02-28T01:41:46;7.53;;;4.75;;
58242;SDS011;50118;53.232;8.252;2023-02-28T01:47:15;7.75;;;4.32;;
58242;SDS011;50118;53.232;8.252;2023-02-28T01:49:41;7.22;;;4.05;;
58242;SDS011;50118;53.232;8.252;2023-02-28T01:52:07;8.93;;;4.60;;
58242;SDS011;50118;53.232;8.252;2023-02-28T01:54:34;9.07;;;4.82;;
58242;SDS011;50118;53.232;8.252;2023-02-28T01:57:08;7.82;;;4.10;;
58242;SDS011;50118;53.232;8.252;2023-02-28T01:59:40;6.93;;;3.75;;
58242;SDS011;50118;53.232;8.252;2023-02-28T02:02:24;8.95;;;4.13;;
58242;SDS011;50118;53.232;8.252;2023-02-28T02:04:52;8.38;;;4.13;;
58242;SDS011;50118;53.232;8.252;2023-02-28T02:07:22;6.15;;;4.18;;
58242;SDS011;50118;53.232;8.252;2023-02-28T02:09:49;7.93;;;4.53;;
58242;SDS011;50118;53.232;8.252;2023-02-28T02:12:23;8.25;;;4.60;;
58242;SDS011;50118;53.232;8.252;2023-02-28T02:15:10;6.47;;;4.05;;
58242;SDS011;50118;53.232;8.252;2023-02-28T02:17:44;6.88;;;3.83;;
58242;SDS011;50118;53.232;8.252;2023-02-28T02:26:51;5.88;;;3.60;;
58242;SDS011;50118;53.232;8.252;2023-02-28T02:40:25;6.72;;;3.45;;
58242;SDS011;50118;53.232;8.252;2023-02-28T02:45:42;6.93;;;4.28;;
58242;SDS011;50118;53.232;8.252;2023-02-28T02:48:12;8.40;;;4.00;;
58242;SDS011;50118;53.232;8.252;2023-02-28T02:50:45;7.53;;;4.43;;
58242;SDS011;50118;53.232;8.252;2023-02-28T02:53:14;7.05;;;4.38;;
58242;SDS011;50118;53.232;8.252;2023-02-28T02:55:44;8.00;;;4.43;;
58242;SDS011;50118;53.232;8.252;2023-02-28T02:58:18;7.57;;;4.05;;
58242;SDS011;50118;53.232;8.252;2023-02-28T03:00:47;8.65;;;4.20;;
58242;SDS011;50118;53.232;8.252;2023-02-28T03:03:18;6.30;;;3.95;;
58242;SDS011;50118;53.232;8.252;2023-02-28T03:05:54;7.95;;;4.22;;
58242;SDS011;50118;53.232;8.252;2023-02-28T03:08:20;8.65;;;4.35;;
58242;SDS011;50118;53.232;8.252;2023-02-28T03:10:48;6.85;;;4.43;;
58242;SDS011;50118;53.232;8.252;2023-02-28T03:13:19;7.93;;;4.90;;
58242;SDS011;50118;53.232;8.252;2023-02-28T03:21:38;9.23;;;4.45;;
58242;SDS011;50118;53.232;8.252;2023-02-28T03:24:11;10.25;;;4.80;;
58242;SDS011;50118;53.232;8.252;2023-02-28T03:27:04;6.87;;;4.33;;
58242;SDS011;50118;53.232;8.252;2023-02-28T03:29:39;7.43;;;4.70;;
58242;SDS011;50118;53.232;8.252;2023-02-28T03:32:27;9.30;;;5.28;;
58242;SDS011;50118;53.232;8.252;2023-02-28T03:35:04;7.55;;;4.38;;
58242;SDS011;50118;53.232;8.252;2023-02-28T03:37:37;9.68;;;4.97;;
58242;SDS011;50118;53.232;8.252;2023-02-28T03:40:13;9.50;;;5.07;;
58242;SDS011;50118;53.232;8.252;2023-02-28T03:42:42;9.20;;;5.60;;
58242;SDS011;50118;53.232;8.252;2023-02-28T03:45:16;8.90;;;5.00;;
58242;SDS011;50118;53.232;8.252;2023-02-28T03:47:50;9.23;;;5.60;;
58242;SDS011;50118;53.232;8.252;2023-02-28T03:50:44;9.00;;;5.25;;
58242;SDS011;50118;53.232;8.252;2023-02-28T03:56:00;6.65;;;4.53;;
58242;SDS011;50118;53.232;8.252;2023-02-28T04:01:20;7.43;;;4.72;;
58242;SDS011;50118;53.232;8.252;2023-02-28T04:06:18;8.65;;;5.00;;
58242;SDS011;50118;53.232;8.252;2023-02-28T04:08:46;6.85;;;5.00;;
58242;SDS011;50118;53.232;8.252;2023-02-28T04:11:23;7.70;;;4.93;;
58242;SDS011;50118;53.232;8.252;2023-02-28T04:14:00;9.00;;;5.70;;
58242;SDS011;50118;53.232;8.252;2023-02-28T04:16:27;8.52;;;5.68;;
58242;SDS011;50118;53.232;8.252;2023-02-28T04:18:52;8.07;;;5.63;;
58242;SDS011;50118;53.232;8.252;2023-02-28T04:21:18;9.95;;;6.07;;
58242;SDS011;50118;53.232;8.252;2023-02-28T04:23:45;12.18;;;5.85;;
58242;SDS011;50118;53.232;8.252;2023-02-28T04:26:11;8.15;;;5.55;;
58242;SDS011;50118;53.232;8.252;2023-02-28T04:28:37;10.10;;;5.40;;
58242;SDS011;50118;53.232;8.252;2023-02-28T04:31:03;12.48;;;6.10;;
58242;SDS011;50118;53.232;8.252;2023-02-28T04:33:30;9.77;;;5.93;;
58242;SDS011;50118;53.232;8.252;2023-02-28T04:38:33;10.63;;;5.95;;
58242;SDS011;50118;53.232;8.252;2023-02-28T04:41:00;8.45;;;5.65;;
58242;SDS011;50118;53.232;8.252;2023-02-28T04:43:27;7.65;;;5.03;;
58242;SDS011;50118;53.232;8.252;2023-02-28T04:45:54;9.52;;;5.60;;
58242;SDS011;50118;53.232;8.252;2023-02-28T04:48:24;8.73;;;6.05;;
58242;SDS011;50118;53.232;8.252;2023-02-28T04:50:52;8.50;;;6.00;;
58242;SDS011;50118;53.232;8.252;2023-02-28T04:53:17;8.65;;;5.93;;
58242;SDS011;50118;53.232;8.252;2023-02-28T04:55:43;10.85;;;6.00;;
58242;SDS011;50118;53.232;8.252;2023-02-28T04:58:08;9.32;;;6.20;;
58242;SDS011;50118;53.232;8.252;2023-02-28T05:00:34;9.43;;;6.25;;
58242;SDS011;50118;53.232;8.252;2023-02-28T05:03:00;9.63;;;5.88;;
58242;SDS011;50118;53.232;8.252;2023-02-28T05:05:25;9.40;;;6.53;;
58242;SDS011;50118;53.232;8.252;2023-02-28T05:07:50;9.65;;;6.30;;
58242;SDS011;50118;53.232;8.252;2023-02-28T05:10:16;9.68;;;6.35;;
58242;SDS011;50118;53.232;8.252;2023-02-28T05:12:41;10.40;;;6.32;;
58242;SDS011;50118;53.232;8.252;2023-02-28T05:15:08;10.13;;;6.60;;
58242;SDS011;50118;53.232;8.252;2023-02-28T05:17:37;13.18;;;6.65;;
58242;SDS011;50118;53.232;8.252;2023-02-28T05:20:03;9.82;;;6.30;;
58242;SDS011;50118;53.232;8.252;2023-02-28T05:22:30;9.30;;;6.45;;
58242;SDS011;50118;53.232;8.252;2023-02-28T05:24:55;12.07;;;7.28;;
58242;SDS011;50118;53.232;8.252;2023-02-28T05:27:20;10.68;;;7.80;;
58242;SDS011;50118;53.232;8.252;2023-02-28T05:29:46;12.15;;;8.23;;
58242;SDS011;50118;53.232;8.252;2023-02-28T05:32:12;11.60;;;8.00;;
58242;SDS011;50118;53.232;8.252;2023-02-28T05:34:38;11.25;;;7.80;;
58242;SDS011;50118;53.232;8.252;2023-02-28T05:37:04;11.05;;;7.85;;
58242;SDS011;50118;53.232;8.252;2023-02-28T05:39:30;12.57;;;8.23;;
58242;SDS011;50118;53.232;8.252;2023-02-28T05:41:56;11.35;;;7.85;;
58242;SDS011;50118;53.232;8.252;2023-02-28T05:44:21;12.93;;;8.80;;
58242;SDS011;50118;53.232;8.252;2023-02-28T05:46:47;11.35;;;8.30;;
58242;SDS011;50118;53.232;8.252;2023-02-28T05:49:12;12.20;;;8.27;;
58242;SDS011;50118;53.232;8.252;2023-02-28T05:51:38;14.23;;;9.75;;
58242;SDS011;50118;53.232;8.252;2023-02-28T05:54:04;15.68;;;10.10;;
58242;SDS011;50118;53.232;8.252;2023-02-28T05:56:30;13.38;;;9.77;;
58242;SDS011;50118;53.232;8.252;2023-02-28T05:58:56;15.80;;;10.80;;
58242;SDS011;50118;53.232;8.252;2023-02-28T06:01:41;15.68;;;10.70;;
58242;SDS011;50118;53.232;8.252;2023-02-28T06:04:13;16.27;;;10.27;;
58242;SDS011;50118;53.232;8.252;2023-02-28T06:06:46;13.20;;;9.90;;
58242;SDS011;50118;53.232;8.252;2023-02-28T06:09:12;13.27;;;9.65;;
58242;SDS011;50118;53.232;8.252;2023-02-28T06:11:38;15.40;;;10.57;;
58242;SDS011;50118;53.232;8.252;2023-02-28T06:14:03;15.48;;;10.68;;
58242;SDS011;50118;53.232;8.252;2023-02-28T06:16:29;15.27;;;10.10;;
58242;SDS011;50118;53.232;8.252;2023-02-28T06:18:57;16.80;;;10.68;;
58242;SDS011;50118;53.232;8.252;2023-02-28T06:21:24;16.98;;;11.48;;
58242;SDS011;50118;53.232;8.252;2023-02-28T06:23:49;17.45;;;11.50;;
58242;SDS011;50118;53.232;8.252;2023-02-28T06:26:15;15.02;;;10.80;;
58242;SDS011;50118;53.232;8.252;2023-02-28T06:28:41;17.52;;;11.75;;
58242;SDS011;50118;53.232;8.252;2023-02-28T06:31:10;15.98;;;11.57;;
58242;SDS011;50118;53.232;8.252;2023-02-28T06:33:37;15.13;;;11.10;;
58242;SDS011;50118;53.232;8.252;2023-02-28T06:36:04;14.98;;;11.68;;
58242;SDS011;50118;53.232;8.252;2023-02-28T06:38:31;15.35;;;11.68;;
58242;SDS011;50118;53.232;8.252;2023-02-28T06:40:57;15.73;;;10.90;;
58242;SDS011;50118;53.232;8.252;2023-02-28T06:43:24;14.20;;;11.20;;
58242;SDS011;50118;53.232;8.252;2023-02-28T06:45:56;30.00;;;13.00;;
58242;SDS011;50118;53.232;8.252;2023-02-28T06:48:23;16.05;;;11.73;;
58242;SDS011;50118;53.232;8.252;2023-02-28T06:50:50;16.98;;;11.25;;
58242;SDS011;50118;53.232;8.252;2023-02-28T06:53:16;15.82;;;11.30;;
58242;SDS011;50118;53.232;8.252;2023-02-28T06:55:41;18.20;;;12.00;;
58242;SDS011;50118;53.232;8.252;2023-02-28T06:58:07;13.73;;;10.60;;
58242;SDS011;50118;53.232;8.252;2023-02-28T07:00:44;14.80;;;11.18;;
58242;SDS011;50118;53.232;8.252;2023-02-28T07:03:10;14.50;;;11.38;;
58242;SDS011;50118;53.232;8.252;2023-02-28T07:05:37;20.33;;;11.93;;
58242;SDS011;50118;53.232;8.252;2023-02-28T07:08:04;17.42;;;12.30;;
58242;SDS011;50118;53.232;8.252;2023-02-28T07:10:31;16.80;;;11.27;;
58242;SDS011;50118;53.232;8.252;2023-02-28T07:12:57;16.15;;;11.90;;
58242;SDS011;50118;53.232;8.252;2023-02-28T07:15:23;14.68;;;10.77;;
58242;SDS011;50118;53.232;8.252;2023-02-28T07:17:49;15.85;;;10.98;;
58242;SDS011;50118;53.232;8.252;2023-02-28T07:20:15;13.60;;;10.00;;
58242;SDS011;50118;53.232;8.252;2023-02-28T07:22:40;15.40;;;10.10;;
58242;SDS011;50118;53.232;8.252;2023-02-28T07:25:06;15.65;;;10.07;;
58242;SDS011;50118;53.232;8.252;2023-02-28T07:27:32;12.25;;;9.57;;
58242;SDS011;50118;53.232;8.252;2023-02-28T07:29:59;14.15;;;9.73;;
58242;SDS011;50118;53.232;8.252;2023-02-28T07:32:26;14.10;;;9.75;;
58242;SDS011;50118;53.232;8.252;2023-02-28T07:34:52;13.23;;;9.60;;
58242;SDS011;50118;53.232;8.252;2023-02-28T07:37:18;11.60;;;8.88;;
58242;SDS011;50118;53.232;8.252;2023-02-28T07:39:43;12.10;;;8.48;;
58242;SDS011;50118;53.232;8.252;2023-02-28T07:42:09;11.88;;;7.18;;
58242;SDS011;50118;53.232;8.252;2023-02-28T07:44:37;12.40;;;7.70;;
58242;SDS011;50118;53.232;8.252;2023-02-28T07:47:06;12.55;;;7.82;;
58242;SDS011;50118;53.232;8.252;2023-02-28T07:49:37;10.23;;;6.65;;
58242;SDS011;50118;53.232;8.252;2023-02-28T07:52:03;11.13;;;6.28;;
58242;SDS011;50118;53.232;8.252;2023-02-28T07:54:32;8.57;;;5.80;;
58242;SDS011;50118;53.232;8.252;2023-02-28T07:56:59;10.13;;;5.70;;
58242;SDS011;50118;53.232;8.252;2023-02-28T07:59:24;11.48;;;5.82;;
58242;SDS011;50118;53.232;8.252;2023-02-28T08:01:50;8.52;;;5.63;;
58242;SDS011;50118;53.232;8.252;2023-02-28T08:04:16;8.95;;;5.22;;
58242;SDS011;50118;53.232;8.252;2023-02-28T08:06:42;8.27;;;5.15;;
58242;SDS011;50118;53.232;8.252;2023-02-28T08:09:08;8.75;;;5.53;;
58242;SDS011;50118;53.232;8.252;2023-02-28T08:11:33;8.32;;;4.88;;
58242;SDS011;50118;53.232;8.252;2023-02-28T08:13:59;9.23;;;5.00;;
58242;SDS011;50118;53.232;8.252;2023-02-28T08:16:25;10.13;;;4.93;;
58242;SDS011;50118;53.232;8.252;2023-02-28T08:18:50;9.98;;;5.25;;
58242;SDS011;50118;53.232;8.252;2023-02-28T08:21:17;6.97;;;4.55;;
58242;SDS011;50118;53.232;8.252;2023-02-28T08:23:45;6.72;;;4.40;;
58242;SDS011;50118;53.232;8.252;2023-02-28T08:26:12;9.13;;;5.03;;
58242;SDS011;50118;53.232;8.252;2023-02-28T08:28:37;7.45;;;4.43;;
58242;SDS011;50118;53.232;8.252;2023-02-28T08:31:07;8.38;;;4.55;;
58242;SDS011;50118;53.232;8.252;2023-02-28T08:33:34;7.90;;;4.47;;
58242;SDS011;50118;53.232;8.252;2023-02-28T08:35:59;7.50;;;4.22;;
58242;SDS011;50118;53.232;8.252;2023-02-28T08:38:25;6.28;;;4.15;;
58242;SDS011;50118;53.232;8.252;2023-02-28T08:40:56;8.40;;;4.40;;
58242;SDS011;50118;53.232;8.252;2023-02-28T08:43:23;5.55;;;3.97;;
58242;SDS011;50118;53.232;8.252;2023-02-28T08:45:51;6.35;;;4.07;;
58242;SDS011;50118;53.232;8.252;2023-02-28T08:48:17;8.32;;;4.28;;
58242;SDS011;50118;53.232;8.252;2023-02-28T08:50:42;7.68;;;4.28;;
58242;SDS011;50118;53.232;8.252;2023-02-28T08:53:07;7.80;;;4.30;;
58242;SDS011;50118;53.232;8.252;2023-02-28T08:55:33;8.27;;;4.20;;
58242;SDS011;50118;53.232;8.252;2023-02-28T08:57:58;8.52;;;4.07;;
58242;SDS011;50118;53.232;8.252;2023-02-28T09:00:24;8.52;;;3.63;;
58242;SDS011;50118;53.232;8.252;2023-02-28T09:02:49;6.47;;;3.40;;
58242;SDS011;50118;53.232;8.252;2023-02-28T09:05:14;6.43;;;3.63;;
58242;SDS011;50118;53.232;8.252;2023-02-28T09:07:40;6.15;;;3.30;;
58242;SDS011;50118;53.232;8.252;2023-02-28T09:10:05;5.28;;;2.72;;
58242;SDS011;50118;53.232;8.252;2023-02-28T09:12:33;6.63;;;3.97;;
58242;SDS011;50118;53.232;8.252;2023-02-28T09:14:59;7.88;;;3.55;;
58242;SDS011;50118;53.232;8.252;2023-02-28T09:17:25;7.53;;;3.45;;
58242;SDS011;50118;53.232;8.252;2023-02-28T09:19:50;7.95;;;3.92;;
58242;SDS011;50118;53.232;8.252;2023-02-28T09:22:15;7.40;;;4.10;;
58242;SDS011;50118;53.232;8.252;2023-02-28T09:24:41;5.90;;;3.20;;
58242;SDS011;50118;53.232;8.252;2023-02-28T09:27:06;7.10;;;3.50;;
58242;SDS011;50118;53.232;8.252;2023-02-28T09:29:33;6.13;;;3.35;;
58242;SDS011;50118;53.232;8.252;2023-02-28T09:31:59;6.00;;;3.67;;
58242;SDS011;50118;53.232;8.252;2023-02-28T09:34:25;6.15;;;3.72;;
58242;SDS011;50118;53.232;8.252;2023-02-28T09:36:51;8.20;;;4.28;;
58242;SDS011;50118;53.232;8.252;2023-02-28T09:39:19;6.63;;;3.38;;
58242;SDS011;50118;53.232;8.252;2023-02-28T09:41:47;6.18;;;3.50;;
58242;SDS011;50118;53.232;8.252;2023-02-28T09:46:51;6.32;;;3.45;;
58242;SDS011;50118;53.232;8.252;2023-02-28T09:49:25;5.30;;;3.40;;
58242;SDS011;50118;53.232;8.252;2023-02-28T09:52:00;5.07;;;3.15;;
58242;SDS011;50118;53.232;8.252;2023-02-28T09:54:34;5.78;;;3.10;;
58242;SDS011;50118;53.232;8.252;2023-02-28T09:57:07;5.13;;;2.90;;
58242;SDS011;50118;53.232;8.252;2023-02-28T10:10:36;5.00;;;2.80;;
58242;SDS011;50118;53.232;8.252;2023-02-28T10:13:11;5.60;;;2.90;;
58242;SDS011;50118;53.232;8.252;2023-02-28T10:15:42;4.80;;;2.08;;
58242;SDS011;50118;53.232;8.252;2023-02-28T10:18:12;5.55;;;2.60;;
58242;SDS011;50118;53.232;8.252;2023-02-28T10:20:44;6.78;;;2.33;;
58242;SDS011;50118;53.232;8.252;2023-02-28T10:23:17;5.70;;;2.30;;
58242;SDS011;50118;53.232;8.252;2023-02-28T10:26:32;4.38;;;2.30;;
58242;SDS011;50118;53.232;8.252;2023-02-28T10:28:37;15.05;;;5.57;;
58242;SDS011;50118;53.232;8.252;2023-02-28T10:31:03;5.55;;;2.55;;
58242;SDS011;50118;53.232;8.252;2023-02-28T10:33:29;5.30;;;2.30;;
58242;SDS011;50118;53.232;8.252;2023-02-28T10:35:57;5.43;;;2.30;;
58242;SDS011;50118;53.232;8.252;2023-02-28T10:38:28;5.15;;;2.40;;
58242;SDS011;50118;53.232;8.252;2023-02-28T10:43:33;5.20;;;2.63;;
58242;SDS011;50118;53.232;8.252;2023-02-28T10:46:01;4.47;;;2.10;;
58242;SDS011;50118;53.232;8.252;2023-02-28T10:48:30;3.85;;;2.00;;
58242;SDS011;50118;53.232;8.252;2023-02-28T10:50:59;5.70;;;2.35;;
58242;SDS011;50118;53.232;8.252;2023-02-28T11:04:18;3.88;;;2.20;;
58242;SDS011;50118;53.232;8.252;2023-02-28T11:07:22;5.05;;;2.28;;
58242;SDS011;50118;53.232;8.252;2023-02-28T11:09:53;4.25;;;1.95;;
58242;SDS011;50118;53.232;8.252;2023-02-28T11:12:25;4.22;;;2.30;;
58242;SDS011;50118;53.232;8.252;2023-02-28T11:14:57;4.03;;;2.47;;
58242;SDS011;50118;53.232;8.252;2023-02-28T11:17:30;4.55;;;2.05;;
58242;SDS011;50118;53.232;8.252;2023-02-28T11:20:04;5.03;;;2.55;;
58242;SDS011;50118;53.232;8.252;2023-02-28T11:22:36;3.05;;;1.80;;
58242;SDS011;50118;53.232;8.252;2023-02-28T11:25:07;3.10;;;1.83;;
58242;SDS011;50118;53.232;8.252;2023-02-28T11:27:48;3.28;;;1.90;;
58242;SDS011;50118;53.232;8.252;2023-02-28T11:30:26;3.85;;;1.80;;
58242;SDS011;50118;53.232;8.252;2023-02-28T11:32:51;4.82;;;2.22;;
58242;SDS011;50118;53.232;8.252;2023-02-28T11:35:18;4.22;;;2.00;;
58242;SDS011;50118;53.232;8.252;2023-02-28T11:37:49;3.47;;;2.05;;
58242;SDS011;50118;53.232;8.252;2023-02-28T11:40:16;4.80;;;1.90;;
58242;SDS011;50118;53.232;8.252;2023-02-28T11:48:14;2.88;;;2.00;;
58242;SDS011;50118;53.232;8.252;2023-02-28T11:53:33;3.22;;;2.00;;
58242;SDS011;50118;53.232;8.252;2023-02-28T12:01:28;3.20;;;1.95;;
58242;SDS011;50118;53.232;8.252;2023-02-28T12:07:07;5.03;;;1.98;;
58242;SDS011;50118;53.232;8.252;2023-02-28T12:20:36;3.05;;;1.88;;
58242;SDS011;50118;53.232;8.252;2023-02-28T12:26:00;4.22;;;2.00;;
58242;SDS011;50118;53.232;8.252;2023-02-28T12:31:02;5.03;;;2.33;;
58242;SDS011;50118;53.232;8.252;2023-02-28T12:33:36;5.65;;;2.30;;
58242;SDS011;50118;53.232;8.252;2023-02-28T12:36:11;4.60;;;2.42;;
58242;SDS011;50118;53.232;8.252;2023-02-28T12:38:45;3.10;;;1.88;;
58242;SDS011;50118;53.232;8.252;2023-02-28T12:41:18;3.60;;;1.90;;
58242;SDS011;50118;53.232;8.252;2023-02-28T12:43:49;4.55;;;2.00;;
58242;SDS011;50118;53.232;8.252;2023-02-28T12:46:22;3.72;;;2.10;;
58242;SDS011;50118;53.232;8.252;2023-02-28T12:48:55;4.28;;;2.10;;
58242;SDS011;50118;53.232;8.252;2023-02-28T12:51:24;3.25;;;2.00;;
58242;SDS011;50118;53.232;8.252;2023-02-28T12:54:04;4.15;;;2.30;;
58242;SDS011;50118;53.232;8.252;2023-02-28T12:59:18;5.40;;;2.00;;
58242;SDS011;50118;53.232;8.252;2023-02-28T13:09:33;5.35;;;2.10;;
58242;SDS011;50118;53.232;8.252;2023-02-28T13:11:58;3.75;;;2.33;;
58242;SDS011;50118;53.232;8.252;2023-02-28T13:19:29;3.47;;;2.10;;
58242;SDS011;50118;53.232;8.252;2023-02-28T13:21:57;3.80;;;2.25;;
58242;SDS011;50118;53.232;8.252;2023-02-28T13:24:38;4.00;;;2.10;;
58242;SDS011;50118;53.232;8.252;2023-02-28T13:39:51;3.65;;;2.22;;
58242;SDS011;50118;53.232;8.252;2023-02-28T13:47:27;3.90;;;2.38;;
58242;SDS011;50118;53.232;8.252;2023-02-28T13:50:14;4.32;;;2.20;;
58242;SDS011;50118;53.232;8.252;2023-02-28T13:55:37;4.28;;;2.10;;
58242;SDS011;50118;53.232;8.252;2023-02-28T14:04:54;4.35;;;2.25;;
58242;SDS011;50118;53.232;8.252;2023-02-28T14:07:27;4.45;;;2.42;;
58242;SDS011;50118;53.232;8.252;2023-02-28T14:09:58;3.30;;;2.33;;
58242;SDS011;50118;53.232;8.252;2023-02-28T14:15:25;4.63;;;2.20;;
58242;SDS011;50118;53.232;8.252;2023-02-28T14:17:57;4.80;;;2.40;;
58242;SDS011;50118;53.232;8.252;2023-02-28T14:20:27;4.68;;;2.40;;
58242;SDS011;50118;53.232;8.252;2023-02-28T14:34:30;4.13;;;2.55;;
58242;SDS011;50118;53.232;8.252;2023-02-28T14:37:04;7.77;;;2.80;;
58242;SDS011;50118;53.232;8.252;2023-02-28T14:39:30;5.78;;;2.70;;
58242;SDS011;50118;53.232;8.252;2023-02-28T14:41:57;4.93;;;2.60;;
58242;SDS011;50118;53.232;8.252;2023-02-28T14:44:28;4.35;;;2.65;;
58242;SDS011;50118;53.232;8.252;2023-02-28T14:46:54;4.18;;;2.50;;
58242;SDS011;50118;53.232;8.252;2023-02-28T14:52:03;3.83;;;2.50;;
58242;SDS011;50118;53.232;8.252;2023-02-28T14:54:34;4.43;;;2.60;;
58242;SDS011;50118;53.232;8.252;2023-02-28T14:57:02;5.85;;;2.67;;
58242;SDS011;50118;53.232;8.252;2023-02-28T14:59:29;3.83;;;2.50;;
58242;SDS011;50118;53.232;8.252;2023-02-28T15:07:41;4.78;;;2.60;;
58242;SDS011;50118;53.232;8.252;2023-02-28T15:10:20;4.22;;;2.35;;
58242;SDS011;50118;53.232;8.252;2023-02-28T15:12:52;4.75;;;2.90;;
58242;SDS011;50118;53.232;8.252;2023-02-28T15:15:18;5.25;;;2.80;;
58242;SDS011;50118;53.232;8.252;2023-02-28T15:17:47;4.93;;;2.78;;
58242;SDS011;50118;53.232;8.252;2023-02-28T15:20:17;5.50;;;2.90;;
58242;SDS011;50118;53.232;8.252;2023-02-28T15:22:43;4.65;;;2.83;;
58242;SDS011;50118;53.232;8.252;2023-02-28T15:25:13;5.50;;;2.72;;
58242;SDS011;50118;53.232;8.252;2023-02-28T15:27:44;5.00;;;2.80;;
58242;SDS011;50118;53.232;8.252;2023-02-28T15:30:17;5.35;;;3.10;;
58242;SDS011;50118;53.232;8.252;2023-02-28T15:32:46;5.20;;;2.58;;
58242;SDS011;50118;53.232;8.252;2023-02-28T15:35:29;5.13;;;2.83;;
58242;SDS011;50118;53.232;8.252;2023-02-28T15:37:57;4.47;;;2.65;;
58242;SDS011;50118;53.232;8.252;2023-02-28T15:40:27;6.30;;;3.13;;
58242;SDS011;50118;53.232;8.252;2023-02-28T15:45:31;5.07;;;2.88;;
58242;SDS011;50118;53.232;8.252;2023-02-28T15:48:13;6.07;;;3.05;;
58242;SDS011;50118;53.232;8.252;2023-02-28T15:51:14;5.50;;;2.80;;
58242;SDS011;50118;53.232;8.252;2023-02-28T15:58:58;4.68;;;2.90;;
58242;SDS011;50118;53.232;8.252;2023-02-28T16:03:58;3.67;;;2.55;;
58242;SDS011;50118;53.232;8.252;2023-02-28T16:06:40;5.85;;;2.58;;
58242;SDS011;50118;53.232;8.252;2023-02-28T16:09:11;4.65;;;2.58;;
58242;SDS011;50118;53.232;8.252;2023-02-28T16:11:40;4.85;;;2.90;;
58242;SDS011;50118;53.232;8.252;2023-02-28T16:14:21;6.88;;;2.78;;
58242;SDS011;50118;53.232;8.252;2023-02-28T16:16:54;5.22;;;2.90;;
58242;SDS011;50118;53.232;8.252;2023-02-28T16:19:21;4.85;;;2.80;;
58242;SDS011;50118;53.232;8.252;2023-02-28T16:21:47;4.30;;;2.58;;
58242;SDS011;50118;53.232;8.252;2023-02-28T16:24:13;5.40;;;2.55;;
58242;SDS011;50118;53.232;8.252;2023-02-28T16:26:39;5.93;;;2.97;;
58242;SDS011;50118;53.232;8.252;2023-02-28T16:29:06;5.43;;;2.80;;
58242;SDS011;50118;53.232;8.252;2023-02-28T16:31:35;5.55;;;3.05;;
58242;SDS011;50118;53.232;8.252;2023-02-28T16:34:02;4.55;;;3.15;;
58242;SDS011;50118;53.232;8.252;2023-02-28T16:36:29;5.95;;;3.60;;
58242;SDS011;50118;53.232;8.252;2023-02-28T16:38:55;9.18;;;3.92;;
58242;SDS011;50118;53.232;8.252;2023-02-28T16:41:22;7.15;;;4.63;;
58242;SDS011;50118;53.232;8.252;2023-02-28T16:43:51;10.30;;;6.25;;
58242;SDS011;50118;53.232;8.252;2023-02-28T16:46:19;6.55;;;4.15;;
58242;SDS011;50118;53.232;8.252;2023-02-28T16:48:46;6.93;;;3.30;;
58242;SDS011;50118;53.232;8.252;2023-02-28T16:51:16;4.75;;;2.75;;
58242;SDS011;50118;53.232;8.252;2023-02-28T16:53:43;4.65;;;2.70;;
58242;SDS011;50118;53.232;8.252;2023-02-28T16:56:19;6.38;;;2.80;;
58242;SDS011;50118;53.232;8.252;2023-02-28T16:58:47;6.38;;;3.08;;
58242;SDS011;50118;53.232;8.252;2023-02-28T17:01:13;5.15;;;3.10;;
58242;SDS011;50118;53.232;8.252;2023-02-28T17:03:38;6.85;;;3.42;;
58242;SDS011;50118;53.232;8.252;2023-02-28T17:06:05;7.28;;;3.67;;
58242;SDS011;50118;53.232;8.252;2023-02-28T17:08:40;7.50;;;4.60;;
58242;SDS011;50118;53.232;8.252;2023-02-28T17:11:06;7.22;;;4.53;;
58242;SDS011;50118;53.232;8.252;2023-02-28T17:13:31;7.05;;;4.72;;
58242;SDS011;50118;53.232;8.252;2023-02-28T17:15:59;9.27;;;4.93;;
58242;SDS011;50118;53.232;8.252;2023-02-28T17:18:24;8.70;;;5.20;;
58242;SDS011;50118;53.232;8.252;2023-02-28T17:20:51;7.50;;;5.65;;
58242;SDS011;50118;53.232;8.252;2023-02-28T17:23:17;7.50;;;5.25;;
58242;SDS011;50118;53.232;8.252;2023-02-28T17:25:42;9.63;;;5.90;;
58242;SDS011;50118;53.232;8.252;2023-02-28T17:28:18;9.98;;;5.60;;
58242;SDS011;50118;53.232;8.252;2023-02-28T17:30:43;9.25;;;5.22;;
58242;SDS011;50118;53.232;8.252;2023-02-28T17:33:12;8.15;;;5.30;;
58242;SDS011;50118;53.232;8.252;2023-02-28T17:35:37;8.52;;;5.18;;
58242;SDS011;50118;53.232;8.252;2023-02-28T17:38:02;9.32;;;5.40;;
58242;SDS011;50118;53.232;8.252;2023-02-28T17:40:28;7.50;;;4.85;;
58242;SDS011;50118;53.232;8.252;2023-02-28T17:42:53;9.20;;;5.50;;
58242;SDS011;50118;53.232;8.252;2023-02-28T17:45:21;7.55;;;5.10;;
58242;SDS011;50118;53.232;8.252;2023-02-28T17:47:47;8.32;;;5.55;;
58242;SDS011;50118;53.232;8.252;2023-02-28T17:50:19;8.30;;;5.45;;